Aérodrome :
LOGIN :

S'inscrire | Disclaimer

   EN    FR    IT 

 










Légende :    VFR   VFR Marginal   IFR   IFR Intensif   IFR Très Intensif
Visi : 
Plafond : 
>= 8 km
>= 3000ft
5 à 8 km
1000 à 3000 ft
1500m à 5 km
500 à 1000 ft
800 à 1500m
200 à 500 ft
< 800m
< 200 ft
Symboles :   Orages  Brouillard  Fortes neiges  Fortes précipitations  Vent > 20 kt
SIGMETs :   Divers  Orages  Givrage  Turbulence  Onde Orograph.  Cendres Volcan.






- Altitude de l'aérodrome : 287 ft


LFRL - Lanveoc Poulmic

DERNIER METAR :
  • 141900Z AUTO 36014KT 9999 -RA FEW016/// SCT024/// BKN029/// ///TCU 06/04 Q0997 TEMPO 30005KT 3000 SHRAGS SCT005 BKN013CB BKN020

METARs EXPIRÉS :
  • 141830Z AUTO 35010KT 9999 FEW014/// BKN024/// BKN036/// ///CB 06/04 Q0997 TEMPO 3000 SHRAGS SCT005 BKN013CB BKN020
  • 141800Z AUTO 35011KT 5000 RA BR FEW014/// SCT021/// BKN030/// ///CB 06/05 Q0997 TEMPO SHRAGS
  • 141730Z AUTO 35011KT 320V020 9999 -RA SCT012/// BKN019/// BKN038/// ///TCU 06/05 Q0996 TEMPO 4000 SHRAGS BKN016CB BKN020
  • 141700Z AUTO 36008KT 9999 -RA FEW010/// SCT015/// BKN020/// ///TCU 06/05 Q0996 TEMPO 4000 SHRAGS BKN016CB BKN020
  • 141630Z AUTO 33008KT 9000 -RA FEW008/// SCT013/// BKN018/// ///TCU 07/05 Q0996 TEMPO 4000 SHRAGS BKN016CB BKN020

TAF TAF LFRL
Valide du 14 à 12h jusqu'au 15 à 12h UTC


141100Z 1412/1512 VRB02KT 9999 SCT020TCU BKN025
TEMPO 1412/1420 30005KT 4000 SHRAGS BKN016CB BKN020
BECMG 1416/1418 35008KT
TEMPO 1420/1512 01010G20KT 3000 SHRAGS SCT005 BKN013CB BKN020



MET'MAP, la Météo Aéronautique d'un coup d'oeil ! - Copyright ORBIFLY Décembre 2007 - Disclaimer

ORBIFLY MET'MAP TEAM :

Programmation & Développement : Alexandra Zaïnal
Conception & Développement : Baudouin d'Aumeries
Co-Programmation & Développement : Marc-Olivier Méhu
Soutien technique & logistique : Manuel Goepfert

Contact : metmap@orbifly.com




SOURCES & CREDITS :

   NOAA